Terminal Aerodrome Forecast
Issued by NWS

Home | Current Version | Previous Version | Text Only | Print | Product List | Glossary On
Versions: 1 2 3 4 5 6 7 8 9 10 11 12 13 14 15 16 17 18 19 20 21 22 23 24 25 26
000
FTUS46 KSEW 191526 AAB
TAFSEA
TAF AMD
KSEA 191526Z 1915/2018 15007KT P6SM VCSH BKN040 OVC060
      TEMPO 1915/1919 -SHRA
     FM192300 19012G20KT P6SM -SHRA BKN025 OVC040
     FM200300 19012G20KT P6SM -SHRA BKN012 OVC025=

USA.gov is the U.S. government's official web portal to all federal, state and local government web resources and services.